Archival Weather

Heathrow

London, United Kingdom (EGLL)

Report from: Monday, July 18, 2022 9:50 AM BST
Current time: Sunday, July 14, 2024 2:40 AM BST

Current weather – Weather history – Daily summaries
Weather forecast

Temperature28.0°C (82.4°F)
Heat index27.6°C (81.7°F)
Dew point11.0°C (51.8°F)
Winds 6 kts (3.1 m/s, 6.9 mph) West-Southwest (250°)
Visibility6.2 mi. (10 km)
Clouds Sky clear
Altimeter30.12 in.Hg (1020 mB)
Relative humidity35 %
Density altitude1,457 ft. (444 m)
Remarks Fully automated report
Corrected report
No clouds detected
No significant changes expected in the next two hours
Flight conditions Visual Meteorological Conditions
Raw dataCOR EGLL 180850Z AUTO 25006KT 9999 NCD 28/11 Q1020 NOSIG
An error has occurred. This application may no longer respond until reloaded. Reload 🗙